»·PEaware :: FFT1041 KBZN-KBIL

FFT1041 :: KBZN-KBIL

FLIGHT INFORMATION

Flight Status: Arrived
Operator:
Frontier Airlines
More flights by this operator :: More flights under this callsign
Pilot: Hayden Y. (1870)
Aircraft: AIRBUS A320
(A320)
More flights by this aircraft type
Origin: KBZN Gallatin
United States
Destination: KBIL Billings Logan Intl
United States
More flights between these airports :: More routes between these airports
Route: BOBKT4 BIL
File this flight plan on PilotEdge
Remarks: RMK / SIMBRIEF
Altitude:
(Current/Filed)
19,000ft
Speed:
(Current/Filed)
346kts
Departed: 21-May-20 03:32 PM
Arrived: 21-May-20 04:00 PM
Distance/Time
Traveled:
109nm/0:28
Distance/Time
To Go:
Arrived

Flight Plot

Page will automatically refresh every two minutes.

Flight plan parsing failed; only flown route is shown


Map Options




Map Legend


Flown Route
Filed Route
Departure Airport
Arrival Airport
Navaid (VOR, NDB)
Fix

Horizontal Profiles

Position Reports

Time Latitude Longitude Heading Altitude Ground
Speed
21-May-20 15:00 45.778232 -111.159709 246 4485ft 0kts
21-May-20 15:01 45.778232 -111.159709 246 4485ft 0kts
21-May-20 15:02 45.778232 -111.159709 246 4485ft 0kts
21-May-20 15:03 45.778232 -111.159709 246 4485ft 0kts
21-May-20 15:04 45.778232 -111.159709 246 4485ft 0kts
21-May-20 15:05 45.778232 -111.159709 246 4485ft 0kts
21-May-20 15:06 45.778232 -111.159709 246 4485ft 0kts
21-May-20 15:07 45.778232 -111.159709 246 4485ft 0kts
21-May-20 15:08 45.778232 -111.159709 246 4485ft 0kts
21-May-20 15:09 45.778232 -111.159709 246 4485ft 0kts
21-May-20 15:10 45.778232 -111.159709 246 4485ft 0kts
21-May-20 15:11 45.778232 -111.159709 246 4485ft 0kts
21-May-20 15:12 45.778232 -111.159709 246 4485ft 0kts
21-May-20 15:13 45.778232 -111.159709 246 4485ft 0kts
21-May-20 15:13 45.778232 -111.159709 246 4485ft 0kts
21-May-20 15:15 45.778232 -111.159709 246 4485ft 0kts
21-May-20 15:15 45.778232 -111.159709 246 4485ft 0kts
21-May-20 15:16 45.778232 -111.159709 246 4485ft 0kts
21-May-20 15:18 45.778232 -111.159709 246 4485ft 0kts
21-May-20 15:18 45.778232 -111.159709 246 4485ft 0kts
21-May-20 15:19 45.778232 -111.159709 246 4485ft 0kts
21-May-20 15:20 45.778232 -111.159709 246 4485ft 0kts
21-May-20 15:21 45.778232 -111.159709 246 4485ft 0kts
21-May-20 15:22 45.778482 -111.159009 183 4485ft 1kts
21-May-20 15:23 45.778808 -111.159380 135 4485ft 0kts
21-May-20 15:24 45.778808 -111.159380 135 4485ft 0kts
21-May-20 15:25 45.778764 -111.159319 135 4485ft 2kts
21-May-20 15:26 45.778078 -111.158261 115 4485ft 3kts
21-May-20 15:27 45.777301 -111.155613 134 4485ft 8kts
21-May-20 15:28 45.774433 -111.151572 136 4485ft 25kts
21-May-20 15:29 45.769275 -111.144141 117 4485ft 10kts
21-May-20 15:30 45.771856 -111.143930 314 4485ft 33kts
21-May-20 15:31 45.799287 -111.181767 311 5643ft 168kts
21-May-20 15:32 45.794059 -111.237197 222 7174ft 189kts
21-May-20 15:33 45.740660 -111.275097 171 8461ft 267kts
21-May-20 15:34 45.670883 -111.219249 155 10904ft 307kts
21-May-20 15:35 45.625949 -111.105830 86 12259ft 391kts
21-May-20 15:36 45.638530 -110.948640 86 14830ft 400kts
21-May-20 15:37 45.648039 -110.786204 78 16012ft 414kts
21-May-20 15:38 45.674009 -110.625858 76 16399ft 415kts
21-May-20 15:39 45.699110 -110.463441 76 18467ft 422kts
21-May-20 15:40 45.711780 -110.301952 84 18837ft 381kts
21-May-20 15:41 45.721225 -110.154847 83 18844ft 367kts
21-May-20 15:42 45.730426 -110.009119 84 18837ft 367kts
21-May-20 15:43 45.739383 -109.863974 84 18835ft 367kts
21-May-20 15:44 45.748231 -109.718078 84 18799ft 366kts
21-May-20 15:45 45.756577 -109.577070 84 17816ft 345kts
21-May-20 15:46 45.764512 -109.440786 85 16803ft 341kts
21-May-20 15:47 45.772113 -109.307108 85 15629ft 333kts
21-May-20 15:48 45.779383 -109.176819 86 14540ft 320kts
21-May-20 15:49 45.786304 -109.050246 87 13132ft 317kts
21-May-20 15:50 45.779647 -108.923880 100 11572ft 319kts
21-May-20 15:51 45.767302 -108.798460 100 9972ft 316kts
21-May-20 15:52 45.754538 -108.675023 100 8184ft 302kts
21-May-20 15:53 45.737055 -108.563633 110 6578ft 273kts
21-May-20 15:54 45.715147 -108.463328 97 5033ft 254kts
21-May-20 15:55 45.743560 -108.392649 1 5001ft 177kts
21-May-20 15:56 45.776692 -108.425118 286 5000ft 146kts
21-May-20 15:57 45.791430 -108.478250 287 4170ft 142kts
21-May-20 15:58 45.805840 -108.529983 290 3594ft 111kts
21-May-20 15:59 45.808765 -108.543759 263 3594ft 17kts
21-May-20 16:00 45.807796 -108.543634 114 3594ft 17kts
21-May-20 16:01 45.805900 -108.538492 145 3594ft 11kts
21-May-20 16:02 45.804632 -108.535964 176 3594ft 4kts
21-May-20 16:03 45.804414 -108.535965 180 3594ft 0kts
21-May-20 16:04 45.804414 -108.535965 180 3594ft 0kts

Navigation Log

Ident Type
Flight plan parsing failed, navigation log unavailable